createdAt,value
2018-09-14T00:00:42.369Z,12.12
2018-09-14T00:01:42.355Z,12.07
2018-09-14T00:02:42.342Z,12.04
2018-09-14T00:03:42.334Z,12.00
2018-09-14T00:04:42.318Z,11.97
2018-09-14T00:05:42.314Z,11.93
2018-09-14T00:06:42.298Z,11.92
2018-09-14T00:07:42.288Z,11.90
2018-09-14T00:08:42.275Z,11.85
2018-09-14T00:09:42.269Z,11.84
2018-09-14T00:10:42.256Z,11.79
2018-09-14T00:11:42.248Z,11.78
2018-09-14T00:12:42.235Z,11.77
2018-09-14T00:13:42.221Z,11.74
2018-09-14T00:14:42.210Z,11.70
2018-09-14T00:15:42.201Z,11.67
2018-09-14T00:16:42.191Z,11.66
2018-09-14T00:17:42.177Z,11.63
2018-09-14T00:18:42.169Z,11.59
2018-09-14T00:19:42.160Z,11.59
2018-09-14T00:20:42.146Z,11.53
2018-09-14T00:21:42.134Z,11.53
2018-09-14T00:22:42.124Z,11.48
2018-09-14T00:23:42.112Z,11.46
2018-09-14T00:24:42.103Z,11.48
2018-09-14T00:25:42.091Z,11.48
2018-09-14T00:26:42.079Z,11.46
2018-09-14T00:27:42.070Z,11.42
2018-09-14T00:28:42.060Z,11.42
2018-09-14T00:29:42.048Z,11.38
2018-09-14T00:30:42.035Z,11.36
2018-09-14T00:31:42.028Z,11.35
2018-09-14T00:32:42.017Z,11.33
2018-09-14T00:33:42.005Z,11.35
2018-09-14T00:34:41.992Z,11.35
2018-09-14T00:35:41.981Z,11.31
2018-09-14T00:36:41.972Z,11.28
2018-09-14T00:37:41.958Z,11.24
2018-09-14T00:38:41.952Z,11.21
2018-09-14T00:39:41.939Z,11.18
2018-09-14T00:40:41.926Z,11.15
2018-09-14T00:41:41.915Z,11.15
2018-09-14T00:42:41.907Z,11.12
2018-09-14T00:43:41.895Z,11.11
2018-09-14T00:44:41.884Z,11.11
2018-09-14T00:45:41.873Z,11.10
2018-09-14T00:46:41.865Z,11.08
2018-09-14T00:47:41.854Z,11.07
2018-09-14T00:48:41.839Z,11.05
2018-09-14T00:49:41.829Z,11.05
2018-09-14T00:50:41.817Z,11.05
2018-09-14T00:51:41.805Z,11.02
2018-09-14T00:52:41.796Z,11.00
2018-09-14T00:53:41.784Z,11.01
2018-09-14T00:54:41.773Z,11.00
2018-09-14T00:55:41.763Z,10.98
2018-09-14T00:56:41.750Z,10.97
2018-09-14T00:57:41.745Z,10.93
2018-09-14T00:58:41.732Z,10.90
2018-09-14T00:59:41.723Z,10.90
2018-09-14T01:00:41.709Z,10.87
2018-09-14T01:01:41.697Z,10.89
2018-09-14T01:02:41.686Z,10.86
2018-09-14T01:03:41.677Z,10.83
2018-09-14T01:04:41.664Z,10.83
2018-09-14T01:05:41.654Z,10.80
2018-09-14T01:06:41.644Z,10.80
2018-09-14T01:07:41.631Z,10.77
2018-09-14T01:08:41.622Z,10.77
2018-09-14T01:09:41.616Z,10.75
2018-09-14T01:10:41.599Z,10.72
2018-09-14T01:11:41.587Z,10.71
2018-09-14T01:12:41.577Z,10.69
2018-09-14T01:13:41.566Z,10.67
2018-09-14T01:14:41.556Z,10.65
2018-09-14T01:15:41.546Z,10.68
2018-09-14T01:16:41.535Z,10.71
2018-09-14T01:17:41.525Z,10.74
2018-09-14T01:18:41.513Z,10.74
2018-09-14T01:19:41.501Z,10.72
2018-09-14T01:20:41.491Z,10.72
2018-09-14T01:21:41.484Z,10.75
2018-09-14T01:22:41.469Z,10.74
2018-09-14T01:23:41.462Z,10.68
2018-09-14T01:24:41.447Z,10.65
2018-09-14T01:25:41.435Z,10.61
2018-09-14T01:26:41.425Z,10.57
2018-09-14T01:27:41.413Z,10.53
2018-09-14T01:28:41.407Z,10.50
2018-09-14T01:29:41.397Z,10.46
2018-09-14T01:30:41.385Z,10.39
2018-09-14T01:31:41.369Z,10.36
2018-09-14T01:32:41.358Z,10.32
2018-09-14T01:33:41.346Z,10.28
2018-09-14T01:34:41.335Z,10.24
2018-09-14T01:35:41.324Z,10.18
2018-09-14T01:36:41.314Z,10.20
2018-09-14T01:37:41.304Z,10.20
2018-09-14T01:38:41.295Z,10.25
2018-09-14T01:39:41.283Z,10.31
2018-09-14T01:40:41.270Z,10.35
2018-09-14T01:41:41.264Z,10.38
2018-09-14T01:42:41.252Z,10.38
2018-09-14T01:43:41.238Z,10.36
2018-09-14T01:44:41.235Z,10.35
2018-09-14T01:45:41.216Z,10.35
2018-09-14T01:46:41.205Z,10.35
2018-09-14T01:47:41.193Z,10.34
2018-09-14T01:48:41.183Z,10.32
2018-09-14T01:49:41.171Z,10.32
2018-09-14T01:50:41.160Z,10.29
2018-09-14T01:51:41.149Z,10.26
2018-09-14T01:52:41.143Z,10.25
2018-09-14T01:53:41.127Z,10.22
2018-09-14T01:54:41.118Z,10.22
2018-09-14T01:55:41.108Z,10.17
2018-09-14T01:56:41.100Z,10.14
2018-09-14T01:57:41.086Z,10.11
2018-09-14T01:58:41.072Z,10.09
2018-09-14T01:59:41.063Z,10.06
2018-09-14T02:00:41.053Z,10.01
2018-09-14T02:01:41.045Z,10.01
2018-09-14T02:02:41.031Z,10.02
2018-09-14T02:03:41.023Z,9.98
2018-09-14T02:04:41.010Z,9.98
2018-09-14T02:05:40.998Z,9.95
2018-09-14T02:06:40.989Z,9.95
2018-09-14T02:07:40.977Z,9.95
2018-09-14T02:08:40.967Z,9.93
2018-09-14T02:09:40.953Z,9.93
2018-09-14T02:10:40.949Z,9.91
2018-09-14T02:11:40.936Z,9.92
2018-09-14T02:12:40.927Z,9.92
2018-09-14T02:13:40.911Z,9.95
2018-09-14T02:14:40.899Z,9.95
2018-09-14T02:15:40.889Z,9.98
2018-09-14T02:16:40.876Z,9.99
2018-09-14T02:17:40.866Z,9.99
2018-09-14T02:18:40.862Z,9.99
2018-09-14T02:19:40.844Z,10.02
2018-09-14T02:20:40.832Z,10.06
2018-09-14T02:21:40.822Z,10.13
2018-09-14T02:22:40.811Z,10.13
2018-09-14T02:23:40.803Z,10.16
2018-09-14T02:24:40.797Z,10.16
2018-09-14T02:25:40.852Z,10.16
2018-09-14T02:26:40.767Z,10.16
2018-09-14T02:27:40.756Z,10.17
2018-09-14T02:28:40.747Z,10.17
2018-09-14T02:29:40.734Z,10.17
2018-09-14T02:30:40.726Z,10.16
2018-09-14T02:31:40.717Z,10.14
2018-09-14T02:32:40.703Z,10.11
2018-09-14T02:33:40.696Z,10.11
2018-09-14T02:34:40.683Z,10.10
2018-09-14T02:35:40.672Z,10.07
2018-09-14T02:36:40.668Z,10.07
2018-09-14T02:37:40.651Z,10.06
2018-09-14T02:38:40.638Z,10.06
2018-09-14T02:39:40.626Z,10.04
2018-09-14T02:40:40.614Z,10.04
2018-09-14T02:41:40.607Z,10.02
2018-09-14T02:42:40.601Z,10.02
2018-09-14T02:43:40.582Z,10.02
2018-09-14T02:44:40.571Z,10.02
2018-09-14T02:45:40.561Z,10.02
2018-09-14T02:46:40.551Z,10.01
2018-09-14T02:47:40.538Z,10.01
2018-09-14T02:48:40.529Z,9.99
2018-09-14T02:49:40.516Z,9.98
2018-09-14T02:50:40.507Z,9.96
2018-09-14T02:51:40.497Z,9.95
2018-09-14T02:52:40.484Z,9.92
2018-09-14T02:53:40.472Z,9.92
2018-09-14T02:54:40.470Z,9.93
2018-09-14T02:55:40.455Z,9.92
2018-09-14T02:56:40.438Z,9.91
2018-09-14T02:57:40.428Z,9.89
2018-09-14T02:58:40.423Z,9.89
2018-09-14T02:59:40.407Z,9.89
2018-09-14T03:00:40.398Z,9.91
2018-09-14T03:01:40.388Z,9.91
2018-09-14T03:02:40.381Z,9.88
2018-09-14T03:03:40.363Z,9.89
2018-09-14T03:04:40.353Z,9.88
2018-09-14T03:05:40.342Z,9.89
2018-09-14T03:06:40.333Z,9.88
2018-09-14T03:07:40.320Z,9.88
2018-09-14T03:08:40.310Z,9.86
2018-09-14T03:09:40.297Z,9.85
2018-09-14T03:10:40.287Z,9.85
2018-09-14T03:11:40.277Z,9.85
2018-09-14T03:12:40.266Z,9.85
2018-09-14T03:13:40.256Z,9.86
2018-09-14T03:14:40.246Z,9.86
2018-09-14T03:15:40.232Z,9.86
2018-09-14T03:16:40.223Z,9.86
2018-09-14T03:17:40.210Z,9.85
2018-09-14T03:18:40.200Z,9.83
2018-09-14T03:19:40.193Z,9.81
2018-09-14T03:20:40.180Z,9.81
2018-09-14T03:21:40.169Z,9.80
2018-09-14T03:22:40.156Z,9.80
2018-09-14T03:23:40.145Z,9.80
2018-09-14T03:24:40.136Z,9.80
2018-09-14T03:25:40.125Z,9.81
2018-09-14T03:26:40.115Z,9.83
2018-09-14T03:27:40.101Z,9.85
2018-09-14T03:28:40.091Z,9.81
2018-09-14T03:29:40.080Z,9.81
2018-09-14T03:30:40.071Z,9.80
2018-09-14T03:31:40.064Z,9.80
2018-09-14T03:32:40.051Z,9.80
2018-09-14T03:33:40.037Z,9.76
2018-09-14T03:34:40.031Z,9.76
2018-09-14T03:35:40.013Z,9.76
2018-09-14T03:36:40.003Z,9.77
2018-09-14T03:37:39.991Z,9.77
2018-09-14T03:38:39.984Z,9.76
2018-09-14T03:39:39.972Z,9.73
2018-09-14T03:40:39.960Z,9.72
2018-09-14T03:41:39.948Z,9.70
2018-09-14T03:42:39.937Z,9.69
2018-09-14T03:43:39.927Z,9.67
2018-09-14T03:44:39.915Z,9.67
2018-09-14T03:45:39.905Z,9.69
2018-09-14T03:46:39.896Z,9.69
2018-09-14T03:47:39.886Z,9.70
2018-09-14T03:48:39.870Z,9.70
2018-09-14T03:49:39.860Z,9.69
2018-09-14T03:50:39.851Z,9.69
2018-09-14T03:51:39.840Z,9.69
2018-09-14T03:52:39.833Z,9.64
2018-09-14T03:53:39.818Z,9.66
2018-09-14T03:54:39.804Z,9.62
2018-09-14T03:55:39.796Z,9.62
2018-09-14T03:56:39.788Z,9.61
2018-09-14T03:57:39.772Z,9.62
2018-09-14T03:58:39.765Z,9.66
2018-09-14T03:59:39.761Z,9.62
2018-09-14T04:00:39.739Z,9.62
2018-09-14T04:01:39.728Z,9.59
2018-09-14T04:02:39.719Z,9.58
2018-09-14T04:03:39.706Z,9.58
2018-09-14T04:04:39.698Z,9.59
2018-09-14T04:05:39.684Z,9.58
2018-09-14T04:06:39.674Z,9.57
2018-09-14T04:07:39.682Z,9.54
2018-09-14T04:08:39.652Z,9.51
2018-09-14T04:09:39.643Z,9.51
2018-09-14T04:10:39.629Z,9.52
2018-09-14T04:11:39.624Z,9.54
2018-09-14T04:12:39.608Z,9.55
2018-09-14T04:13:39.598Z,9.57
2018-09-14T04:14:39.589Z,9.57
2018-09-14T04:15:39.574Z,9.55
2018-09-14T04:16:39.566Z,9.55
2018-09-14T04:17:39.562Z,9.52
2018-09-14T04:18:39.544Z,9.54
2018-09-14T04:19:39.537Z,9.54
2018-09-14T04:20:39.521Z,9.57
2018-09-14T04:21:39.514Z,9.57
2018-09-14T04:22:39.497Z,9.55
2018-09-14T04:23:39.572Z,9.54
2018-09-14T04:24:39.479Z,9.52
2018-09-14T04:25:39.466Z,9.49
2018-09-14T04:26:39.457Z,9.48
2018-09-14T04:27:39.443Z,9.48
2018-09-14T04:28:39.440Z,9.49
2018-09-14T04:29:39.429Z,9.49
2018-09-14T04:30:39.416Z,9.47
2018-09-14T04:31:39.401Z,9.47
2018-09-14T04:32:39.393Z,9.44
2018-09-14T04:33:39.378Z,9.43
2018-09-14T04:34:39.366Z,9.41
2018-09-14T04:35:39.357Z,9.41
2018-09-14T04:36:39.345Z,9.40
2018-09-14T04:37:39.339Z,9.37
2018-09-14T04:38:39.413Z,9.39
2018-09-14T04:39:39.312Z,9.39
2018-09-14T04:40:39.304Z,9.39
2018-09-14T04:41:39.291Z,9.40
2018-09-14T04:42:39.282Z,9.41
2018-09-14T04:43:39.269Z,9.43
2018-09-14T04:44:39.260Z,9.44
2018-09-14T04:45:39.250Z,9.43
2018-09-14T04:46:39.237Z,9.43
2018-09-14T04:47:39.227Z,9.44
2018-09-14T04:48:39.215Z,9.44
2018-09-14T04:49:39.205Z,9.43
2018-09-14T04:50:39.195Z,9.47
2018-09-14T04:51:39.183Z,9.48
2018-09-14T04:52:39.171Z,9.51
2018-09-14T04:53:39.159Z,9.57
2018-09-14T04:54:39.150Z,9.58
2018-09-14T04:55:39.137Z,9.61
2018-09-14T04:56:39.137Z,9.61
2018-09-14T04:57:39.119Z,9.59
2018-09-14T04:58:39.111Z,9.61
2018-09-14T04:59:39.096Z,9.61
2018-09-14T05:00:39.085Z,9.62
2018-09-14T05:01:39.079Z,9.62
2018-09-14T05:02:39.063Z,9.64
2018-09-14T05:03:39.053Z,9.64
2018-09-14T05:04:39.043Z,9.62
2018-09-14T05:05:39.028Z,9.59
2018-09-14T05:06:39.020Z,9.58
2018-09-14T05:07:39.054Z,9.58
2018-09-14T05:08:38.998Z,9.58
2018-09-14T05:09:38.985Z,9.57
2018-09-14T05:10:38.976Z,9.52
2018-09-14T05:11:38.963Z,9.51
2018-09-14T05:12:38.951Z,9.51
2018-09-14T05:13:38.943Z,9.47
2018-09-14T05:14:38.933Z,9.44
2018-09-14T05:15:38.921Z,9.43
2018-09-14T05:16:38.914Z,9.41
2018-09-14T05:17:38.897Z,9.43
2018-09-14T05:18:38.887Z,9.41
2018-09-14T05:19:38.875Z,9.40
2018-09-14T05:20:38.869Z,9.37
2018-09-14T05:21:38.855Z,9.37
2018-09-14T05:22:38.841Z,9.39
2018-09-14T05:23:38.832Z,9.43
2018-09-14T05:24:38.875Z,9.47
2018-09-14T05:25:38.808Z,9.49
2018-09-14T05:26:38.799Z,9.52
2018-09-14T05:27:38.788Z,9.54
2018-09-14T05:28:38.778Z,9.52
2018-09-14T05:29:38.767Z,9.49
2018-09-14T05:30:38.757Z,9.49
2018-09-14T05:31:38.746Z,9.48
2018-09-14T05:32:38.734Z,9.49
2018-09-14T05:33:38.724Z,9.49
2018-09-14T05:34:38.713Z,9.49
2018-09-14T05:35:38.701Z,9.51
2018-09-14T05:36:38.690Z,9.52
2018-09-14T05:37:38.682Z,9.55
2018-09-14T05:38:38.676Z,9.55
2018-09-14T05:39:38.657Z,9.59
2018-09-14T05:40:38.646Z,9.61
2018-09-14T05:41:38.639Z,9.62
2018-09-14T05:42:38.622Z,9.67
2018-09-14T05:43:38.613Z,9.69
2018-09-14T05:44:38.606Z,9.73
2018-09-14T05:45:38.601Z,9.76
2018-09-14T05:46:38.582Z,9.92
2018-09-14T05:47:38.598Z,10.07
2018-09-14T05:48:38.560Z,10.16
2018-09-14T05:49:38.549Z,10.31
2018-09-14T05:50:38.539Z,10.44
2018-09-14T05:51:38.526Z,10.53
2018-09-14T05:52:38.520Z,10.64
2018-09-14T05:53:38.507Z,10.69
2018-09-14T05:54:38.534Z,10.75
2018-09-14T05:55:38.483Z,10.85
2018-09-14T05:56:38.474Z,10.87
2018-09-14T05:57:38.463Z,10.80
2018-09-14T05:58:38.455Z,10.82
2018-09-14T05:59:38.439Z,10.85
2018-09-14T06:00:38.426Z,10.85
2018-09-14T06:01:38.468Z,10.86
2018-09-14T06:02:38.408Z,10.87
2018-09-14T06:03:38.393Z,10.93
2018-09-14T06:04:38.388Z,11.04
2018-09-14T06:05:38.371Z,11.15
2018-09-14T06:06:38.418Z,11.26
2018-09-14T06:07:38.351Z,11.30
2018-09-14T06:08:38.340Z,11.31
2018-09-14T06:09:38.330Z,11.35
2018-09-14T06:10:38.320Z,11.24
2018-09-14T06:11:38.311Z,11.18
2018-09-14T06:12:38.302Z,11.23
2018-09-14T06:13:38.287Z,11.36
2018-09-14T06:14:38.273Z,11.30
2018-09-14T06:15:38.263Z,11.24
2018-09-14T06:16:38.254Z,11.26
2018-09-14T06:17:38.242Z,11.27
2018-09-14T06:18:38.232Z,11.24
2018-09-14T06:19:38.218Z,11.21
2018-09-14T06:20:38.209Z,11.18
2018-09-14T06:21:38.196Z,11.16
2018-09-14T06:22:38.245Z,11.12
2018-09-14T06:23:38.175Z,11.10
2018-09-14T06:24:38.169Z,11.08
2018-09-14T06:25:38.156Z,11.00
2018-09-14T06:26:38.143Z,10.97
2018-09-14T06:27:38.133Z,10.85
2018-09-14T06:28:38.123Z,10.75
2018-09-14T06:29:38.109Z,10.69
2018-09-14T06:30:38.099Z,10.67
2018-09-14T06:31:38.087Z,10.64
2018-09-14T06:32:38.078Z,10.64
2018-09-14T06:33:38.068Z,10.67
2018-09-14T06:34:38.054Z,10.69
2018-09-14T06:35:38.045Z,10.71
2018-09-14T06:36:38.036Z,10.75
2018-09-14T06:37:38.024Z,10.77
2018-09-14T06:38:38.017Z,10.75
2018-09-14T06:39:38.064Z,10.74
2018-09-14T06:40:37.993Z,10.74
2018-09-14T06:41:37.980Z,10.75
2018-09-14T06:42:37.970Z,10.80
2018-09-14T06:43:37.957Z,10.82
2018-09-14T06:44:37.945Z,10.83
2018-09-14T06:45:37.934Z,10.86
2018-09-14T06:46:37.926Z,10.86
2018-09-14T06:47:37.915Z,10.89
2018-09-14T06:48:37.902Z,10.90
2018-09-14T06:49:37.894Z,10.93
2018-09-14T06:50:37.880Z,10.92
2018-09-14T06:51:37.869Z,10.87
2018-09-14T06:52:37.860Z,10.85
2018-09-14T06:53:37.849Z,10.86
2018-09-14T06:54:37.840Z,10.89
2018-09-14T06:55:37.826Z,10.90
2018-09-14T06:56:37.816Z,10.89
2018-09-14T06:57:37.801Z,10.90
2018-09-14T06:58:37.794Z,10.94
2018-09-14T06:59:37.785Z,10.94
2018-09-14T07:00:37.771Z,10.97
2018-09-14T07:01:37.758Z,10.98
2018-09-14T07:02:37.751Z,11.00
2018-09-14T07:03:37.742Z,11.05
2018-09-14T07:04:37.730Z,11.11
2018-09-14T07:05:37.717Z,11.18
2018-09-14T07:06:37.706Z,11.24
2018-09-14T07:07:37.694Z,11.24
2018-09-14T07:08:37.686Z,11.24
2018-09-14T07:09:37.692Z,11.30
2018-09-14T07:10:37.662Z,11.35
2018-09-14T07:11:37.675Z,11.41
2018-09-14T07:12:37.642Z,11.39
2018-09-14T07:13:37.630Z,11.36
2018-09-14T07:14:37.617Z,11.41
2018-09-14T07:15:37.612Z,11.39
2018-09-14T07:16:37.597Z,11.39
2018-09-14T07:17:37.585Z,11.36
2018-09-14T07:18:37.573Z,11.36
2018-09-14T07:19:37.563Z,11.39
2018-09-14T07:20:37.553Z,11.39
2018-09-14T07:21:37.581Z,11.39
2018-09-14T07:22:37.531Z,11.42
2018-09-14T07:23:37.520Z,11.46
2018-09-14T07:24:37.602Z,11.51
2018-09-14T07:25:37.525Z,11.53
2018-09-14T07:26:37.509Z,11.57
2018-09-14T07:27:37.483Z,11.62
2018-09-14T07:28:37.487Z,11.67
2018-09-14T07:29:37.459Z,11.75
2018-09-14T07:30:37.467Z,11.84
2018-09-14T07:31:37.482Z,11.90
2018-09-14T07:32:37.422Z,11.93
2018-09-14T07:33:37.409Z,11.97
2018-09-14T07:34:37.399Z,12.00
2018-09-14T07:35:37.389Z,12.04
2018-09-14T07:36:37.516Z,12.10
2018-09-14T07:37:37.367Z,12.14
2018-09-14T07:38:37.353Z,12.17
2018-09-14T07:39:37.343Z,12.18
2018-09-14T07:40:37.333Z,12.22
2018-09-14T07:41:37.322Z,12.30
2018-09-14T07:42:37.398Z,12.35
2018-09-14T07:43:37.299Z,12.35
2018-09-14T07:44:37.287Z,12.36
2018-09-14T07:45:37.281Z,12.40
2018-09-14T07:46:37.265Z,12.43
2018-09-14T07:47:37.254Z,12.50
2018-09-14T07:48:37.253Z,12.54
2018-09-14T07:49:37.232Z,12.55
2018-09-14T07:50:37.223Z,12.60
2018-09-14T07:51:37.215Z,12.69
2018-09-14T07:52:37.200Z,12.71
2018-09-14T07:53:37.188Z,12.76
2018-09-14T07:54:37.196Z,12.80
2018-09-14T07:55:37.227Z,12.84
2018-09-14T07:56:37.161Z,12.92
2018-09-14T07:57:37.150Z,12.96
2018-09-14T07:58:37.136Z,13.01
2018-09-14T07:59:37.124Z,13.07
2018-09-14T08:00:37.115Z,13.09
2018-09-14T08:01:37.106Z,13.14
2018-09-14T08:02:37.093Z,13.24
2018-09-14T08:03:37.088Z,13.32
2018-09-14T08:04:37.073Z,13.34
2018-09-14T08:05:37.062Z,13.32
2018-09-14T08:06:37.052Z,13.29
2018-09-14T08:07:37.038Z,13.31
2018-09-14T08:08:37.032Z,13.34
2018-09-14T08:09:37.015Z,13.40
2018-09-14T08:10:37.005Z,13.49
2018-09-14T08:11:36.994Z,13.58
2018-09-14T08:12:36.983Z,13.65
2018-09-14T08:13:36.983Z,13.72
2018-09-14T08:14:37.051Z,13.79
2018-09-14T08:15:36.950Z,13.79
2018-09-14T08:16:36.987Z,13.82
2018-09-14T08:17:36.928Z,13.85
2018-09-14T08:18:36.917Z,13.90
2018-09-14T08:19:36.912Z,13.92
2018-09-14T08:20:36.896Z,14.03
2018-09-14T08:21:36.942Z,14.13
2018-09-14T08:22:36.873Z,14.23
2018-09-14T08:23:36.864Z,14.29
2018-09-14T08:24:36.851Z,14.39
2018-09-14T08:25:36.843Z,14.53
2018-09-14T08:26:36.831Z,14.61
2018-09-14T08:27:36.819Z,14.67
2018-09-14T08:28:36.813Z,14.69
2018-09-14T08:29:36.797Z,14.74
2018-09-14T08:30:36.787Z,14.69
2018-09-14T08:31:36.779Z,14.69
2018-09-14T08:32:36.767Z,14.72
2018-09-14T08:33:36.757Z,14.81
2018-09-14T08:34:36.745Z,14.90
2018-09-14T08:35:36.734Z,15.04
2018-09-14T08:36:36.721Z,15.18
2018-09-14T08:37:36.710Z,15.30
2018-09-14T08:38:36.700Z,15.34
2018-09-14T08:39:36.690Z,15.34
2018-09-14T08:40:36.679Z,15.42
2018-09-14T08:41:36.725Z,15.51
2018-09-14T08:42:36.656Z,15.59
2018-09-14T08:43:36.650Z,15.70
2018-09-14T08:44:36.633Z,15.77
2018-09-14T08:45:36.629Z,15.77
2018-09-14T08:46:36.612Z,15.81
2018-09-14T08:47:36.604Z,15.96
2018-09-14T08:48:36.591Z,16.13
2018-09-14T08:49:36.584Z,16.28
2018-09-14T08:50:36.576Z,16.29
2018-09-14T08:51:36.559Z,16.31
2018-09-14T08:52:36.546Z,16.40
2018-09-14T08:53:36.644Z,16.51
2018-09-14T08:54:36.526Z,16.41
2018-09-14T08:55:36.518Z,16.47
2018-09-14T08:56:36.506Z,16.64
2018-09-14T08:57:36.495Z,16.69
2018-09-14T08:58:36.483Z,16.83
2018-09-14T08:59:36.471Z,17.03
2018-09-14T09:00:36.569Z,17.18
2018-09-14T09:01:36.448Z,17.32
2018-09-14T09:02:36.441Z,17.45
2018-09-14T09:03:36.429Z,17.57
2018-09-14T09:04:36.417Z,17.69
2018-09-14T09:05:36.405Z,17.73
2018-09-14T09:06:36.398Z,17.57
2018-09-14T09:07:36.384Z,17.58
2018-09-14T09:08:36.371Z,17.61
2018-09-14T09:09:36.360Z,17.70
2018-09-14T09:10:36.401Z,17.78
2018-09-14T09:11:36.341Z,17.78
2018-09-14T09:12:36.330Z,17.78
2018-09-14T09:13:36.318Z,17.53
2018-09-14T09:14:36.307Z,17.28
2018-09-14T09:15:36.295Z,17.20
2018-09-14T09:16:36.285Z,17.12
2018-09-14T09:17:36.279Z,17.18
2018-09-14T09:18:36.263Z,17.30
2018-09-14T09:19:36.251Z,17.39
2018-09-14T09:20:36.239Z,17.27
2018-09-14T09:21:36.231Z,17.20
2018-09-14T09:22:36.219Z,17.10
2018-09-14T09:23:36.207Z,17.05
2018-09-14T09:24:36.198Z,17.02
2018-09-14T09:25:36.187Z,16.86
2018-09-14T09:26:36.173Z,16.77
2018-09-14T09:27:36.161Z,16.77
2018-09-14T09:28:36.151Z,16.81
2018-09-14T09:29:36.243Z,16.80
2018-09-14T09:30:36.131Z,16.79
2018-09-14T09:31:36.117Z,16.84
2018-09-14T09:32:36.110Z,16.90
2018-09-14T09:33:36.100Z,16.99
2018-09-14T09:34:36.084Z,17.06
2018-09-14T09:35:36.073Z,17.14
2018-09-14T09:36:36.063Z,17.21
2018-09-14T09:37:36.052Z,17.22
2018-09-14T09:38:36.048Z,17.27
2018-09-14T09:39:36.030Z,17.32
2018-09-14T09:40:36.022Z,17.35
2018-09-14T09:41:36.007Z,17.33
2018-09-14T09:42:35.996Z,17.32
2018-09-14T09:43:36.134Z,17.38
2018-09-14T09:44:35.975Z,17.42
2018-09-14T09:45:35.963Z,17.46
2018-09-14T09:46:35.951Z,17.54
2018-09-14T09:47:35.943Z,17.57
2018-09-14T09:48:35.939Z,17.62
2018-09-14T09:49:35.926Z,17.57
2018-09-14T09:50:35.911Z,17.62
2018-09-14T09:51:35.900Z,17.82
2018-09-14T09:52:35.887Z,17.83
2018-09-14T09:53:35.878Z,17.83
2018-09-14T09:54:35.865Z,17.79
2018-09-14T09:55:35.955Z,17.61
2018-09-14T09:56:35.855Z,17.51
2018-09-14T09:57:35.832Z,17.49
2018-09-14T09:58:35.822Z,17.49
2018-09-14T09:59:35.814Z,17.46
2018-09-14T10:00:35.804Z,17.38
2018-09-14T10:01:35.790Z,17.46
2018-09-14T10:02:35.779Z,17.51
2018-09-14T10:03:35.843Z,17.53
2018-09-14T10:04:35.761Z,17.49
2018-09-14T10:05:35.746Z,17.57
2018-09-14T10:06:35.735Z,17.57
2018-09-14T10:07:35.723Z,17.53
2018-09-14T10:08:35.713Z,17.61
2018-09-14T10:09:35.701Z,17.72
2018-09-14T10:10:35.691Z,17.83
2018-09-14T10:11:35.680Z,17.86
2018-09-14T10:12:35.668Z,17.60
2018-09-14T10:13:35.657Z,17.58
2018-09-14T10:14:35.646Z,17.58
2018-09-14T10:15:35.635Z,17.80
2018-09-14T10:16:35.622Z,17.88
2018-09-14T10:17:35.612Z,17.86
2018-09-14T10:18:35.606Z,17.94
2018-09-14T10:19:35.590Z,18.12
2018-09-14T10:20:35.618Z,18.28
2018-09-14T10:21:35.624Z,18.44
2018-09-14T10:22:35.557Z,18.64
2018-09-14T10:23:35.546Z,18.75
2018-09-14T10:24:35.536Z,18.93
2018-09-14T10:25:35.525Z,18.96
2018-09-14T10:26:35.515Z,19.01
2018-09-14T10:27:35.503Z,19.11
2018-09-14T10:28:35.493Z,19.20
2018-09-14T10:29:35.480Z,19.27
2018-09-14T10:30:35.469Z,19.45
2018-09-14T10:31:35.460Z,19.51
2018-09-14T10:32:35.446Z,19.52
2018-09-14T10:33:35.438Z,19.59
2018-09-14T10:34:35.428Z,19.42
2018-09-14T10:35:35.416Z,19.24
2018-09-14T10:36:35.406Z,19.22
2018-09-14T10:37:35.394Z,19.16
2018-09-14T10:38:35.381Z,19.08
2018-09-14T10:39:35.372Z,18.90
2018-09-14T10:40:35.370Z,18.76
2018-09-14T10:41:35.350Z,18.84
2018-09-14T10:42:35.336Z,18.84
2018-09-14T10:43:35.328Z,18.86
2018-09-14T10:44:35.317Z,18.87
2018-09-14T10:45:35.306Z,18.89
2018-09-14T10:46:35.294Z,18.96
2018-09-14T10:47:35.285Z,18.94
2018-09-14T10:48:35.272Z,18.99
2018-09-14T10:49:35.264Z,19.02
2018-09-14T10:50:35.251Z,19.04
2018-09-14T10:51:35.239Z,19.05
2018-09-14T10:52:35.228Z,19.14
2018-09-14T10:53:35.217Z,18.91
2018-09-14T10:54:35.210Z,18.84
2018-09-14T10:55:35.197Z,18.78
2018-09-14T10:56:35.186Z,18.64
2018-09-14T10:57:35.174Z,18.64
2018-09-14T10:58:35.167Z,18.69
2018-09-14T10:59:35.157Z,18.74
2018-09-14T11:00:35.140Z,18.64
2018-09-14T11:01:35.128Z,18.56
2018-09-14T11:02:35.120Z,18.65
2018-09-14T11:03:35.108Z,18.60
2018-09-14T11:04:35.230Z,18.64
2018-09-14T11:05:35.088Z,18.68
2018-09-14T11:06:35.130Z,18.79
2018-09-14T11:07:35.064Z,18.91
2018-09-14T11:08:35.052Z,19.04
2018-09-14T11:09:35.047Z,19.14
2018-09-14T11:10:35.032Z,19.20
2018-09-14T11:11:35.026Z,19.22
2018-09-14T11:12:35.040Z,19.11
2018-09-14T11:13:34.997Z,19.15
2018-09-14T11:14:34.987Z,18.91
2018-09-14T11:15:34.977Z,18.78
2018-09-14T11:16:34.964Z,18.74
2018-09-14T11:17:34.956Z,18.71
2018-09-14T11:18:35.017Z,18.82
2018-09-14T11:19:34.932Z,18.91
2018-09-14T11:20:34.956Z,19.14
2018-09-14T11:21:34.910Z,19.34
2018-09-14T11:22:34.899Z,19.46
2018-09-14T11:23:34.892Z,19.69
2018-09-14T11:24:34.887Z,19.85
2018-09-14T11:25:34.868Z,19.75
2018-09-14T11:26:34.855Z,19.69
2018-09-14T11:27:34.844Z,19.89
2018-09-14T11:28:34.837Z,19.98
2018-09-14T11:29:34.824Z,20.01
2018-09-14T11:30:34.817Z,20.10
2018-09-14T11:31:34.800Z,20.17
2018-09-14T11:32:34.792Z,20.34
2018-09-14T11:33:34.777Z,20.53
2018-09-14T11:34:34.788Z,20.62
2018-09-14T11:35:34.757Z,20.77
2018-09-14T11:36:34.750Z,20.81
2018-09-14T11:37:34.801Z,20.75
2018-09-14T11:38:34.877Z,20.67
2018-09-14T11:39:34.716Z,20.50
2018-09-14T11:40:34.707Z,20.62
2018-09-14T11:41:34.692Z,20.82
2018-09-14T11:42:34.682Z,20.80
2018-09-14T11:43:34.672Z,20.30
2018-09-14T11:44:34.663Z,20.41
2018-09-14T11:45:34.648Z,20.55
2018-09-14T11:46:34.638Z,20.57
2018-09-14T11:47:34.631Z,20.81
2018-09-14T11:48:34.619Z,20.97
2018-09-14T11:49:34.606Z,21.05
2018-09-14T11:50:34.601Z,21.26
2018-09-14T11:51:34.583Z,21.34
2018-09-14T11:52:34.572Z,21.46
2018-09-14T11:53:34.562Z,21.43
2018-09-14T11:54:34.550Z,21.26
2018-09-14T11:55:34.543Z,21.08
2018-09-14T11:56:34.530Z,20.90
2018-09-14T11:57:34.518Z,20.87
2018-09-14T11:58:34.508Z,20.84
2018-09-14T11:59:34.495Z,20.74
2018-09-14T12:00:34.487Z,20.70
2018-09-14T12:01:34.475Z,20.75
2018-09-14T12:02:34.464Z,20.65
2018-09-14T12:03:34.451Z,20.74
2018-09-14T12:04:34.442Z,20.50
2018-09-14T12:05:34.434Z,20.52
2018-09-14T12:06:34.418Z,20.55
2018-09-14T12:07:34.410Z,20.59
2018-09-14T12:08:34.398Z,20.70
2018-09-14T12:09:34.385Z,20.84
2018-09-14T12:10:34.378Z,20.96
2018-09-14T12:11:34.364Z,21.05
2018-09-14T12:12:34.357Z,21.04
2018-09-14T12:13:34.403Z,21.00
2018-09-14T12:14:34.331Z,20.96
2018-09-14T12:15:34.321Z,20.95
2018-09-14T12:16:34.313Z,21.00
2018-09-14T12:17:34.302Z,21.04
2018-09-14T12:18:34.296Z,20.92
2018-09-14T12:19:34.279Z,20.65
2018-09-14T12:20:34.266Z,20.44
2018-09-14T12:21:34.259Z,20.37
2018-09-14T12:22:34.251Z,20.34
2018-09-14T12:23:34.238Z,20.31
2018-09-14T12:24:34.226Z,20.26
2018-09-14T12:25:34.212Z,20.20
2018-09-14T12:26:34.210Z,20.17
2018-09-14T12:27:34.194Z,20.12
2018-09-14T12:28:34.180Z,20.17
2018-09-14T12:29:34.171Z,20.16
2018-09-14T12:30:34.164Z,20.04
2018-09-14T12:31:34.148Z,20.07
2018-09-14T12:32:34.136Z,20.10
2018-09-14T12:33:34.125Z,20.05
2018-09-14T12:34:34.116Z,20.05
2018-09-14T12:35:34.162Z,20.07
2018-09-14T12:36:34.141Z,20.08
2018-09-14T12:37:34.083Z,20.12
2018-09-14T12:38:34.071Z,20.30
2018-09-14T12:39:34.061Z,20.40
2018-09-14T12:40:34.048Z,20.35
2018-09-14T12:41:34.046Z,20.35
2018-09-14T12:42:34.029Z,20.40
2018-09-14T12:43:34.022Z,20.34
2018-09-14T12:44:34.006Z,20.31
2018-09-14T12:45:33.995Z,20.08
2018-09-14T12:46:33.986Z,20.13
2018-09-14T12:47:33.977Z,20.30
2018-09-14T12:48:33.967Z,20.37
2018-09-14T12:49:33.950Z,20.47
2018-09-14T12:50:33.938Z,20.67
2018-09-14T12:51:33.929Z,20.68
2018-09-14T12:52:33.918Z,20.56
2018-09-14T12:53:33.908Z,20.68
2018-09-14T12:54:33.895Z,20.75
2018-09-14T12:55:33.888Z,20.75
2018-09-14T12:56:33.874Z,20.65
2018-09-14T12:57:33.866Z,20.60
2018-09-14T12:58:33.853Z,20.68